createdAt,value
2023-04-08T00:01:00.173Z,101899.81
2023-04-08T00:03:27.046Z,101886.41
2023-04-08T00:05:54.538Z,101896.38
2023-04-08T00:08:21.499Z,101888.44
2023-04-08T00:10:48.224Z,101888.44
2023-04-08T00:13:15.740Z,101893.25
2023-04-08T00:15:42.604Z,101887.31
2023-04-08T00:18:09.433Z,101888.94
2023-04-08T00:20:36.329Z,101888.69
2023-04-08T00:23:03.380Z,101888.41
2023-04-08T00:25:30.492Z,101889.13
2023-04-08T00:27:57.346Z,101886.59
2023-04-08T00:30:24.314Z,101886.59
2023-04-08T00:32:51.132Z,101890.84
2023-04-08T00:35:17.977Z,101884.69
2023-04-08T00:37:44.717Z,101891.53
2023-04-08T00:40:11.827Z,101891.13
2023-04-08T00:42:39.215Z,101896.38
2023-04-08T00:45:06.783Z,101895.91
2023-04-08T00:47:36.119Z,101903.31
2023-04-08T00:50:03.660Z,101899.88
2023-04-08T00:52:30.578Z,101903.63
2023-04-08T00:54:57.458Z,101899.09
2023-04-08T00:57:24.343Z,101894.47
2023-04-08T00:59:51.368Z,101894.56
2023-04-08T01:02:33.507Z,101899.19
2023-04-08T01:05:05.899Z,101894.16
2023-04-08T01:07:35.773Z,101893.88
2023-04-08T01:10:11.124Z,101900.31
2023-04-08T01:12:45.654Z,101912.59
2023-04-08T01:15:12.671Z,101911.38
2023-04-08T01:17:40.703Z,101901.09
2023-04-08T01:20:09.043Z,101907.84
2023-04-08T01:23:00.779Z,101911.50
2023-04-08T01:25:32.405Z,101907.38
2023-04-08T01:28:01.953Z,101915.03
2023-04-08T01:30:30.640Z,101906.84
2023-04-08T01:32:58.482Z,101911.69
2023-04-08T01:35:26.342Z,101896.09
2023-04-08T01:37:54.040Z,101905.44
2023-04-08T01:40:22.567Z,101907.56
2023-04-08T01:42:51.151Z,101902.59
2023-04-08T01:45:18.542Z,101899.00
2023-04-08T01:47:47.562Z,101908.53
2023-04-08T01:50:15.729Z,101904.81
2023-04-08T01:52:46.620Z,101902.22
2023-04-08T01:55:14.616Z,101909.13
2023-04-08T01:57:42.274Z,101904.84
2023-04-08T02:00:13.052Z,101907.13
2023-04-08T02:02:51.725Z,101905.41
2023-04-08T02:05:19.308Z,101906.53
2023-04-08T02:07:48.161Z,101901.28
2023-04-08T02:10:15.864Z,101902.09
2023-04-08T02:12:44.421Z,101906.69
2023-04-08T02:15:13.030Z,101907.31
2023-04-08T02:17:48.033Z,101911.25
2023-04-08T02:20:18.510Z,101909.34
2023-04-08T02:22:54.132Z,101901.41
2023-04-08T02:25:24.959Z,101908.75
2023-04-08T02:27:53.261Z,101912.47
2023-04-08T02:30:20.509Z,101913.28
2023-04-08T02:32:48.337Z,101910.38
2023-04-08T02:35:16.247Z,101912.16
2023-04-08T02:37:43.132Z,101909.00
2023-04-08T02:40:42.424Z,101919.59
2023-04-08T02:43:09.489Z,101913.88
2023-04-08T02:45:39.319Z,101922.94
2023-04-08T02:48:06.559Z,101919.41
2023-04-08T02:50:33.453Z,101924.38
2023-04-08T02:53:00.134Z,101923.53
2023-04-08T02:55:28.070Z,101932.53
2023-04-08T02:57:54.977Z,101927.94
2023-04-08T03:00:21.792Z,101932.94
2023-04-08T03:02:48.752Z,101932.97
2023-04-08T03:05:16.476Z,101927.28
2023-04-08T03:07:43.295Z,101935.41
2023-04-08T03:10:10.557Z,101930.72
2023-04-08T03:12:37.375Z,101926.69
2023-04-08T03:15:04.522Z,101921.44
2023-04-08T03:17:33.944Z,101927.47
2023-04-08T03:20:01.776Z,101922.69
2023-04-08T03:22:28.547Z,101925.28
2023-04-08T03:24:55.635Z,101916.63
2023-04-08T03:27:22.766Z,101939.03
2023-04-08T03:29:49.657Z,101925.88
2023-04-08T03:32:16.832Z,101925.84
2023-04-08T03:34:44.002Z,101923.06
2023-04-08T03:37:11.296Z,101931.22
2023-04-08T03:39:38.753Z,101930.59
2023-04-08T03:42:05.498Z,101934.13
2023-04-08T03:44:32.341Z,101933.03
2023-04-08T03:46:59.070Z,101927.19
2023-04-08T03:49:26.423Z,101932.31
2023-04-08T03:51:53.194Z,101934.00
2023-04-08T03:54:19.932Z,101946.41
2023-04-08T03:56:46.943Z,101939.44
2023-04-08T03:59:13.671Z,101939.81
2023-04-08T04:01:41.971Z,101945.00
2023-04-08T04:04:09.279Z,101948.06
2023-04-08T04:06:36.404Z,101950.31
2023-04-08T04:09:03.401Z,101950.13
2023-04-08T04:11:30.281Z,101954.94
2023-04-08T04:13:57.175Z,101938.34
2023-04-08T04:16:24.086Z,101942.28
2023-04-08T04:18:52.888Z,101942.81
2023-04-08T04:21:20.003Z,101953.03
2023-04-08T04:23:46.804Z,101947.88
2023-04-08T04:26:13.706Z,101944.72
2023-04-08T04:28:40.450Z,101947.66
2023-04-08T04:31:07.339Z,101957.16
2023-04-08T04:33:34.036Z,101958.06
2023-04-08T04:36:00.995Z,101954.84
2023-04-08T04:38:28.168Z,101967.72
2023-04-08T04:40:54.897Z,101967.31
2023-04-08T04:43:21.754Z,101963.50
2023-04-08T04:45:48.657Z,101973.88
2023-04-08T04:48:15.579Z,101971.88
2023-04-08T04:50:42.571Z,101981.44
2023-04-08T04:53:09.332Z,101976.13
2023-04-08T04:55:39.167Z,101980.53
2023-04-08T04:58:06.048Z,101980.13
2023-04-08T05:00:32.871Z,101978.84
2023-04-08T05:02:59.733Z,101984.56
2023-04-08T05:05:26.620Z,101986.81
2023-04-08T05:07:53.879Z,101983.56
2023-04-08T05:10:20.926Z,101987.69
2023-04-08T05:12:47.592Z,101983.31
2023-04-08T05:15:14.660Z,101981.44
2023-04-08T05:17:41.559Z,101974.88
2023-04-08T05:20:08.698Z,101984.31
2023-04-08T05:22:35.594Z,101978.69
2023-04-08T05:25:02.546Z,101985.94
2023-04-08T05:27:29.438Z,101987.09
2023-04-08T05:29:56.397Z,101983.88
2023-04-08T05:32:23.857Z,101987.00
2023-04-08T05:34:50.958Z,101985.56
2023-04-08T05:37:17.705Z,101979.78
2023-04-08T05:39:44.389Z,101984.56
2023-04-08T05:42:12.899Z,101988.16
2023-04-08T05:44:41.556Z,101991.13
2023-04-08T05:47:08.496Z,101989.31
2023-04-08T05:49:35.870Z,101993.47
2023-04-08T05:52:03.769Z,101994.56
2023-04-08T05:54:36.385Z,102002.03
2023-04-08T05:57:03.645Z,102000.22
2023-04-08T05:59:30.674Z,101992.56
2023-04-08T06:01:57.582Z,101990.53
2023-04-08T06:04:24.639Z,101992.59
2023-04-08T06:06:51.570Z,101992.28
2023-04-08T06:09:18.447Z,102001.41
2023-04-08T06:11:47.282Z,101992.13
2023-04-08T06:14:14.602Z,102000.38
2023-04-08T06:16:41.546Z,102006.69
2023-04-08T06:19:08.307Z,102018.50
2023-04-08T06:21:35.357Z,102024.16
2023-04-08T06:24:02.113Z,102022.50
2023-04-08T06:26:28.987Z,102021.69
2023-04-08T06:28:56.089Z,102032.03
2023-04-08T06:31:23.053Z,102037.59
2023-04-08T06:33:49.798Z,102042.03
2023-04-08T06:36:16.929Z,102038.66
2023-04-08T06:38:43.994Z,102044.31
2023-04-08T06:41:11.355Z,102060.09
2023-04-08T06:43:38.502Z,102062.13
2023-04-08T06:46:05.355Z,102053.31
2023-04-08T06:48:32.579Z,102057.50
2023-04-08T06:51:00.691Z,102066.38
2023-04-08T06:53:30.783Z,102066.56
2023-04-08T06:55:57.573Z,102061.16
2023-04-08T06:58:24.784Z,102061.63
2023-04-08T07:00:51.945Z,102073.13
2023-04-08T07:03:18.967Z,102065.06
2023-04-08T07:05:46.184Z,102068.09
2023-04-08T07:08:13.024Z,102073.00
2023-04-08T07:10:40.390Z,102071.31
2023-04-08T07:13:07.777Z,102076.56
2023-04-08T07:15:34.905Z,102084.63
2023-04-08T07:18:01.825Z,102079.06
2023-04-08T07:20:30.279Z,102082.94
2023-04-08T07:22:58.306Z,102090.91
2023-04-08T07:25:25.809Z,102086.47
2023-04-08T07:27:52.995Z,102101.47
2023-04-08T07:30:20.012Z,102096.03
2023-04-08T07:32:47.037Z,102092.69
2023-04-08T07:35:14.230Z,102099.16
2023-04-08T07:37:41.242Z,102102.91
2023-04-08T07:40:08.812Z,102090.66
2023-04-08T07:42:35.567Z,102098.84
2023-04-08T07:45:02.617Z,102110.56
2023-04-08T07:47:29.389Z,102101.66
2023-04-08T07:49:56.299Z,102111.03
2023-04-08T07:52:23.274Z,102107.81
2023-04-08T07:54:50.291Z,102111.56
2023-04-08T07:57:17.280Z,102128.38
2023-04-08T07:59:44.214Z,102128.28
2023-04-08T08:02:11.107Z,102124.69
2023-04-08T08:04:38.291Z,102121.13
2023-04-08T08:07:05.855Z,102117.28
2023-04-08T08:09:32.617Z,102122.25
2023-04-08T08:11:59.522Z,102135.84
2023-04-08T08:14:27.321Z,102136.34
2023-04-08T08:16:54.470Z,102138.78
2023-04-08T08:19:21.434Z,102128.78
2023-04-08T08:21:48.565Z,102134.13
2023-04-08T08:24:17.701Z,102139.69
2023-04-08T08:26:49.246Z,102139.09
2023-04-08T08:29:16.334Z,102142.69
2023-04-08T08:31:43.298Z,102147.66
2023-04-08T08:34:10.447Z,102151.91
2023-04-08T08:36:37.342Z,102152.91
2023-04-08T08:39:04.307Z,102164.78
2023-04-08T08:41:37.921Z,102165.31
2023-04-08T08:44:08.803Z,102162.41
2023-04-08T08:46:35.946Z,102168.09
2023-04-08T08:49:02.818Z,102156.91
2023-04-08T08:51:30.375Z,102166.09
2023-04-08T08:53:58.970Z,102152.44
2023-04-08T08:56:26.462Z,102156.81
2023-04-08T08:58:53.247Z,102162.44
2023-04-08T09:01:36.529Z,102157.56
2023-04-08T09:04:14.460Z,102158.75
2023-04-08T09:06:51.780Z,102158.00
2023-04-08T09:09:19.689Z,102157.94
2023-04-08T09:11:47.377Z,102150.38
2023-04-08T09:14:32.902Z,102161.56
2023-04-08T09:16:59.741Z,102153.91
2023-04-08T09:19:35.410Z,102155.38
2023-04-08T09:22:09.846Z,102161.09
2023-04-08T09:24:43.273Z,102149.72
2023-04-08T09:27:10.080Z,102161.88
2023-04-08T09:29:39.269Z,102145.63
2023-04-08T09:32:24.469Z,102146.75
2023-04-08T09:35:01.162Z,102156.13
2023-04-08T09:37:28.868Z,102147.84
2023-04-08T09:39:57.890Z,102152.19
2023-04-08T09:42:24.850Z,102152.91
2023-04-08T09:44:56.015Z,102149.53
2023-04-08T09:47:26.536Z,102143.72
2023-04-08T09:49:58.587Z,102148.53
2023-04-08T09:52:34.550Z,102156.19
2023-04-08T09:55:05.297Z,102149.22
2023-04-08T09:57:45.919Z,102146.31
2023-04-08T10:00:17.709Z,102156.88
2023-04-08T10:03:09.565Z,102150.59
2023-04-08T10:05:42.332Z,102153.38
2023-04-08T10:08:10.156Z,102150.09
2023-04-08T10:10:39.875Z,102150.38
2023-04-08T10:13:10.420Z,102159.59
2023-04-08T10:15:39.647Z,102143.28
2023-04-08T10:18:09.691Z,102157.22
2023-04-08T10:20:43.284Z,102154.22
2023-04-08T10:23:15.584Z,102164.25
2023-04-08T10:25:45.654Z,102145.47
2023-04-08T10:28:18.347Z,102149.16
2023-04-08T10:30:47.114Z,102143.91
2023-04-08T10:33:16.785Z,102158.38
2023-04-08T10:36:12.897Z,102155.44
2023-04-08T10:38:40.147Z,102150.94
2023-04-08T10:41:07.131Z,102147.94
2023-04-08T10:43:35.241Z,102145.41
2023-04-08T10:46:02.834Z,102149.50
2023-04-08T10:48:29.732Z,102143.50
2023-04-08T10:50:58.958Z,102141.03
2023-04-08T10:53:36.399Z,102139.81
2023-04-08T10:56:11.055Z,102136.75
2023-04-08T10:58:52.299Z,102144.84
2023-04-08T11:01:20.203Z,102144.97
2023-04-08T11:03:48.311Z,102139.34
2023-04-08T11:06:15.689Z,102137.56
2023-04-08T11:08:42.383Z,102141.91
2023-04-08T11:11:11.153Z,102142.75
2023-04-08T11:13:51.184Z,102145.31
2023-04-08T11:16:21.405Z,102137.09
2023-04-08T11:18:48.523Z,102133.59
2023-04-08T11:21:17.147Z,102137.88
2023-04-08T11:23:54.099Z,102136.38
2023-04-08T11:26:21.662Z,102138.47
2023-04-08T11:28:52.117Z,102132.59
2023-04-08T11:31:22.787Z,102124.84
2023-04-08T11:33:54.357Z,102129.34
2023-04-08T11:36:22.041Z,102128.66
2023-04-08T11:38:49.198Z,102127.72
2023-04-08T11:41:17.115Z,102131.91
2023-04-08T11:43:54.665Z,102133.72
2023-04-08T11:46:21.694Z,102124.84
2023-04-08T11:49:08.767Z,102131.88
2023-04-08T11:51:38.896Z,102136.00
2023-04-08T11:54:09.155Z,102134.03
2023-04-08T11:56:48.883Z,102137.81
2023-04-08T11:59:15.925Z,102132.81
2023-04-08T12:01:42.867Z,102135.72
2023-04-08T12:04:11.477Z,102130.59
2023-04-08T12:06:38.614Z,102130.50
2023-04-08T12:09:05.367Z,102136.38
2023-04-08T12:11:34.968Z,102131.50
2023-04-08T12:14:02.627Z,102115.22
2023-04-08T12:16:29.571Z,102121.16
2023-04-08T12:18:56.530Z,102120.22
2023-04-08T12:21:23.708Z,102120.28
2023-04-08T12:23:50.967Z,102121.53
2023-04-08T12:26:17.806Z,102123.47
2023-04-08T12:28:49.132Z,102112.91
2023-04-08T12:31:16.457Z,102119.53
2023-04-08T12:33:43.225Z,102113.78
2023-04-08T12:36:12.173Z,102113.97
2023-04-08T12:38:40.632Z,102117.63
2023-04-08T12:41:07.851Z,102112.91
2023-04-08T12:43:34.821Z,102111.59
2023-04-08T12:46:02.147Z,102109.00
2023-04-08T12:48:29.102Z,102103.22
2023-04-08T12:50:59.048Z,102093.69
2023-04-08T12:53:26.090Z,102093.56
2023-04-08T12:55:57.150Z,102096.59
2023-04-08T12:58:27.309Z,102099.31
2023-04-08T13:00:54.135Z,102095.97
2023-04-08T13:03:21.612Z,102101.59
2023-04-08T13:05:48.703Z,102104.34
2023-04-08T13:08:16.817Z,102097.44
2023-04-08T13:10:43.730Z,102097.75
2023-04-08T13:13:10.502Z,102101.78
2023-04-08T13:15:38.583Z,102099.97
2023-04-08T13:18:05.703Z,102090.16
2023-04-08T13:20:37.209Z,102091.59
2023-04-08T13:23:09.266Z,102081.97
2023-04-08T13:25:36.365Z,102079.91
2023-04-08T13:28:03.798Z,102088.91
2023-04-08T13:30:30.814Z,102086.63
2023-04-08T13:33:31.850Z,102092.41
2023-04-08T13:36:03.340Z,102084.63
2023-04-08T13:41:29.004Z,102064.69
2023-04-08T13:43:56.995Z,102076.97
2023-04-08T13:46:46.766Z,102080.38
2023-04-08T13:49:16.803Z,102082.28
2023-04-08T13:57:54.721Z,102066.59
2023-04-08T14:00:24.566Z,102064.19
2023-04-08T14:05:46.246Z,102073.31
2023-04-08T14:08:14.433Z,102067.66
2023-04-08T14:16:16.918Z,102073.63
2023-04-08T14:18:59.048Z,102081.47
2023-04-08T14:21:30.834Z,102070.56
2023-04-08T14:36:53.921Z,102058.47
2023-04-08T14:39:21.608Z,102058.31
2023-04-08T14:42:23.010Z,102070.38
2023-04-08T14:45:23.612Z,102071.22
2023-04-08T14:48:15.057Z,102060.91
2023-04-08T14:50:50.149Z,102053.00
2023-04-08T15:05:02.890Z,102052.47
2023-04-08T15:07:33.457Z,102037.75
2023-04-08T15:10:00.825Z,102049.69
2023-04-08T15:12:29.345Z,102058.97
2023-04-08T15:14:56.062Z,102055.06
2023-04-08T15:17:26.084Z,102057.22
2023-04-08T15:20:00.148Z,102047.22
2023-04-08T15:22:29.474Z,102047.13
2023-04-08T15:24:56.564Z,102059.84
2023-04-08T15:27:23.745Z,102046.41
2023-04-08T15:29:50.880Z,102040.47
2023-04-08T15:32:17.968Z,102042.56
2023-04-08T15:34:44.908Z,102049.16
2023-04-08T15:37:11.790Z,102048.34
2023-04-08T15:40:04.373Z,102051.22
2023-04-08T15:42:31.596Z,102049.53
2023-04-08T15:44:59.139Z,102058.69
2023-04-08T15:47:27.338Z,102056.28
2023-04-08T15:49:56.088Z,102050.66
2023-04-08T15:52:23.188Z,102048.84
2023-04-08T15:54:49.894Z,102048.69
2023-04-08T15:57:16.796Z,102050.22
2023-04-08T15:59:43.634Z,102048.19
2023-04-08T16:02:11.010Z,102045.59
2023-04-08T16:04:38.481Z,102058.25
2023-04-08T16:07:05.445Z,102053.69
2023-04-08T16:09:34.267Z,102052.66
2023-04-08T16:12:01.612Z,102040.16
2023-04-08T16:14:29.326Z,102053.19
2023-04-08T16:16:57.704Z,102045.44
2023-04-08T16:19:27.720Z,102044.31
2023-04-08T16:21:54.600Z,102044.81
2023-04-08T16:24:23.361Z,102053.81
2023-04-08T16:26:50.209Z,102054.59
2023-04-08T16:29:17.964Z,102045.59
2023-04-08T16:31:45.106Z,102053.50
2023-04-08T16:34:14.503Z,102049.97
2023-04-08T16:36:41.325Z,102042.91
2023-04-08T16:39:08.181Z,102051.97
2023-04-08T16:41:35.282Z,102055.06
2023-04-08T16:44:02.327Z,102044.13
2023-04-08T16:46:29.174Z,102043.16
2023-04-08T16:48:56.006Z,102045.53
2023-04-08T16:51:25.835Z,102046.94
2023-04-08T16:53:53.145Z,102046.47
2023-04-08T16:56:21.769Z,102049.38
2023-04-08T16:58:57.233Z,102044.03
2023-04-08T17:01:24.141Z,102044.72
2023-04-08T17:03:53.272Z,102043.13
2023-04-08T17:06:20.689Z,102052.03
2023-04-08T17:08:47.646Z,102048.16
2023-04-08T17:11:15.561Z,102046.03
2023-04-08T17:13:43.741Z,102054.88
2023-04-08T17:16:17.305Z,102056.78
2023-04-08T17:18:45.175Z,102048.91
2023-04-08T17:21:14.073Z,102051.91
2023-04-08T17:23:41.066Z,102048.34
2023-04-08T17:26:11.440Z,102051.88
2023-04-08T17:28:38.267Z,102049.16
2023-04-08T17:31:05.188Z,102045.91
2023-04-08T17:33:33.942Z,102053.50
2023-04-08T17:36:00.956Z,102048.03
2023-04-08T17:38:28.194Z,102044.47
2023-04-08T17:40:55.062Z,102036.78
2023-04-08T17:43:22.714Z,102059.47
2023-04-08T17:45:50.639Z,102053.34
2023-04-08T17:48:19.075Z,102049.31
2023-04-08T17:50:46.420Z,102060.13
2023-04-08T17:53:13.382Z,102053.81
2023-04-08T17:55:40.634Z,102052.69
2023-04-08T17:58:07.495Z,102049.34
2023-04-08T18:00:34.490Z,102056.56
2023-04-08T18:03:01.461Z,102058.00
2023-04-08T18:05:29.132Z,102065.72
2023-04-08T18:07:56.014Z,102067.50
2023-04-08T18:10:24.657Z,102068.94
2023-04-08T18:13:00.616Z,102063.00
2023-04-08T18:15:42.867Z,102072.34
2023-04-08T18:18:09.757Z,102057.38
2023-04-08T18:20:37.391Z,102073.31
2023-04-08T18:23:04.584Z,102077.78
2023-04-08T18:25:32.571Z,102073.00
2023-04-08T18:27:59.883Z,102068.97
2023-04-08T18:30:27.115Z,102071.22
2023-04-08T18:32:54.017Z,102073.47
2023-04-08T18:35:21.299Z,102078.59
2023-04-08T18:37:48.195Z,102076.34
2023-04-08T18:40:15.782Z,102080.19
2023-04-08T18:42:42.590Z,102083.31
2023-04-08T18:45:09.672Z,102087.53
2023-04-08T18:47:37.690Z,102087.66
2023-04-08T18:50:05.487Z,102101.38
2023-04-08T18:52:32.522Z,102094.75
2023-04-08T18:55:02.920Z,102092.91
2023-04-08T18:57:29.731Z,102101.22
2023-04-08T18:59:56.847Z,102099.00
2023-04-08T19:02:23.882Z,102100.09
2023-04-08T19:04:53.183Z,102093.47
2023-04-08T19:07:20.372Z,102098.47
2023-04-08T19:09:47.426Z,102109.22
2023-04-08T19:12:14.676Z,102096.84
2023-04-08T19:14:42.239Z,102104.28
2023-04-08T19:17:10.184Z,102098.56
2023-04-08T19:19:37.405Z,102098.16
2023-04-08T19:22:06.289Z,102111.31
2023-04-08T19:24:33.440Z,102108.81
2023-04-08T19:27:01.123Z,102110.69
2023-04-08T19:29:29.822Z,102103.66
2023-04-08T19:31:59.709Z,102106.19
2023-04-08T19:34:26.901Z,102114.53
2023-04-08T19:36:54.563Z,102107.78
2023-04-08T19:39:21.587Z,102112.53
2023-04-08T19:41:48.829Z,102111.94
2023-04-08T19:44:18.798Z,102108.41
2023-04-08T19:46:45.754Z,102104.19
2023-04-08T19:49:12.741Z,102114.91
2023-04-08T19:51:39.726Z,102118.25
2023-04-08T19:54:06.455Z,102109.25
2023-04-08T19:56:34.088Z,102113.72
2023-04-08T19:59:01.948Z,102111.41
2023-04-08T20:01:29.525Z,102117.66
2023-04-08T20:03:56.593Z,102119.25
2023-04-08T20:06:24.459Z,102126.16
2023-04-08T20:08:53.026Z,102124.03
2023-04-08T20:11:20.934Z,102116.19
2023-04-08T20:13:49.449Z,102126.78
2023-04-08T20:16:17.016Z,102127.00
2023-04-08T20:18:43.781Z,102124.03
2023-04-08T20:21:13.899Z,102126.31
2023-04-08T20:23:44.512Z,102129.91
2023-04-08T20:26:12.724Z,102138.59
2023-04-08T20:28:40.322Z,102132.50
2023-04-08T20:31:07.826Z,102130.81
2023-04-08T20:33:35.093Z,102130.06
2023-04-08T20:36:02.095Z,102129.03
2023-04-08T20:38:29.043Z,102130.88
2023-04-08T20:40:56.209Z,102128.81
2023-04-08T20:43:23.885Z,102125.91
2023-04-08T20:45:50.780Z,102131.91
2023-04-08T20:48:17.656Z,102130.50
2023-04-08T20:50:45.103Z,102138.81
2023-04-08T20:53:13.401Z,102135.59
2023-04-08T20:55:40.540Z,102130.25
2023-04-08T20:58:07.830Z,102127.94
2023-04-08T21:00:35.016Z,102136.22
2023-04-08T21:03:02.145Z,102129.56
2023-04-08T21:05:30.488Z,102131.81
2023-04-08T21:07:57.843Z,102135.03
2023-04-08T21:10:25.023Z,102135.31
2023-04-08T21:12:51.698Z,102132.31
2023-04-08T21:15:18.642Z,102137.44
2023-04-08T21:17:45.397Z,102123.91
2023-04-08T21:20:12.817Z,102126.34
2023-04-08T21:22:39.778Z,102127.97
2023-04-08T21:25:07.040Z,102133.84
2023-04-08T21:27:33.805Z,102132.00
2023-04-08T21:30:00.694Z,102137.66
2023-04-08T21:32:29.976Z,102135.44
2023-04-08T21:34:57.038Z,102123.63
2023-04-08T21:37:23.924Z,102124.94
2023-04-08T21:39:51.734Z,102122.22
2023-04-08T21:42:22.875Z,102131.63
2023-04-08T21:44:53.699Z,102123.66
2023-04-08T21:47:21.028Z,102128.91
2023-04-08T21:49:54.543Z,102121.31
2023-04-08T21:52:29.149Z,102119.50
2023-04-08T21:55:01.876Z,102130.63
2023-04-08T21:57:28.806Z,102130.31
2023-04-08T22:00:13.525Z,102135.34
2023-04-08T22:02:45.878Z,102136.56
2023-04-08T22:05:12.887Z,102132.22
2023-04-08T22:07:39.708Z,102125.97
2023-04-08T22:10:07.438Z,102131.84
2023-04-08T22:12:34.613Z,102134.16
2023-04-08T22:15:16.082Z,102138.16
2023-04-08T22:17:43.259Z,102132.41
2023-04-08T22:20:12.629Z,102135.31
2023-04-08T22:22:39.551Z,102136.25
2023-04-08T22:25:08.010Z,102131.53
2023-04-08T22:27:35.058Z,102136.47
2023-04-08T22:30:09.219Z,102135.75
2023-04-08T22:32:42.649Z,102129.50
2023-04-08T22:35:10.755Z,102122.94
2023-04-08T22:37:37.497Z,102129.06
2023-04-08T22:40:17.434Z,102128.56
2023-04-08T22:42:57.638Z,102127.34
2023-04-08T22:45:24.856Z,102118.50
2023-04-08T22:47:53.776Z,102116.25
2023-04-08T22:50:20.953Z,102127.44
2023-04-08T22:52:51.260Z,102121.19
2023-04-08T22:55:20.684Z,102120.88
2023-04-08T22:57:47.853Z,102124.00
2023-04-08T23:00:16.030Z,102122.94
2023-04-08T23:02:43.836Z,102124.03
2023-04-08T23:05:12.072Z,102127.13
2023-04-08T23:07:39.071Z,102129.06
2023-04-08T23:10:06.700Z,102128.94
2023-04-08T23:12:35.122Z,102121.28
2023-04-08T23:15:07.155Z,102111.22
2023-04-08T23:17:41.777Z,102121.31
2023-04-08T23:20:09.170Z,102128.91
2023-04-08T23:22:35.856Z,102122.31
2023-04-08T23:25:02.673Z,102117.97
2023-04-08T23:27:32.260Z,102120.41
2023-04-08T23:30:05.436Z,102127.75
2023-04-08T23:32:33.137Z,102119.06
2023-04-08T23:35:00.439Z,102124.06
2023-04-08T23:37:27.679Z,102124.22
2023-04-08T23:39:54.772Z,102124.50
2023-04-08T23:42:26.900Z,102124.00
2023-04-08T23:44:54.879Z,102128.41
2023-04-08T23:47:22.114Z,102126.50
2023-04-08T23:49:49.389Z,102129.97
2023-04-08T23:52:16.386Z,102123.38
2023-04-08T23:54:43.530Z,102118.78
2023-04-08T23:57:10.334Z,102126.75
2023-04-08T23:59:37.158Z,102121.97
